createdAt,value
2023-02-02T00:02:04.068Z,0.50
2023-02-02T00:04:37.147Z,0.40
2023-02-02T00:07:08.913Z,0.30
2023-02-02T00:09:40.170Z,0.50
2023-02-02T00:12:11.881Z,0.50
2023-02-02T00:14:42.784Z,0.45
2023-02-02T00:17:14.230Z,0.40
2023-02-02T00:19:48.184Z,0.40
2023-02-02T00:22:19.161Z,0.50
2023-02-02T00:24:50.481Z,0.40
2023-02-02T00:27:21.601Z,0.50
2023-02-02T00:29:55.200Z,2.22
2023-02-02T00:32:26.707Z,0.30
2023-02-02T00:34:57.795Z,0.50
2023-02-02T00:39:59.470Z,0.40
2023-02-02T00:45:19.392Z,0.40
2023-02-02T00:47:51.609Z,0.30
2023-02-02T00:50:23.807Z,1.23
2023-02-02T00:52:56.234Z,0.40
2023-02-02T00:57:58.851Z,0.40
2023-02-02T01:03:05.696Z,0.40
2023-02-02T01:05:37.307Z,0.80
2023-02-02T01:08:08.886Z,0.70
2023-02-02T01:10:40.060Z,1.30
2023-02-02T01:13:11.486Z,0.50
2023-02-02T01:15:42.907Z,0.50
2023-02-02T01:18:14.317Z,0.40
2023-02-02T01:20:45.352Z,0.45
2023-02-02T01:25:48.235Z,0.50
2023-02-02T01:28:19.421Z,0.50
2023-02-02T01:30:51.060Z,0.40
2023-02-02T01:33:22.508Z,0.50
2023-02-02T01:35:58.179Z,0.40
2023-02-02T01:38:29.628Z,0.50
2023-02-02T01:41:01.207Z,0.40
2023-02-02T01:43:48.891Z,0.45
2023-02-02T01:46:22.750Z,0.50
2023-02-02T01:49:05.424Z,0.50
2023-02-02T01:51:55.376Z,0.50
2023-02-02T01:54:31.698Z,0.60
2023-02-02T01:57:09.415Z,0.50
2023-02-02T01:59:40.912Z,0.60
2023-02-02T02:02:12.073Z,0.63
2023-02-02T02:04:44.000Z,0.57
2023-02-02T02:07:15.989Z,0.60
2023-02-02T02:09:47.235Z,1.13
2023-02-02T02:12:19.228Z,0.80
2023-02-02T02:15:11.093Z,0.70
2023-02-02T02:18:27.973Z,0.68
2023-02-02T02:21:41.587Z,0.60
2023-02-02T02:25:00.135Z,1.00
2023-02-02T02:28:11.367Z,0.70
2023-02-02T02:30:42.667Z,0.77
2023-02-02T02:33:25.978Z,0.70
2023-02-02T02:36:42.493Z,1.00
2023-02-02T02:39:27.767Z,0.55
2023-02-02T02:42:05.226Z,0.70
2023-02-02T02:44:36.476Z,0.60
2023-02-02T02:49:45.423Z,1.00
2023-02-02T02:52:17.376Z,0.75
2023-02-02T02:54:52.764Z,0.80
2023-02-02T02:57:40.912Z,0.80
2023-02-02T03:00:31.596Z,0.70
2023-02-02T03:03:24.319Z,1.00
2023-02-02T03:06:08.101Z,0.80
2023-02-02T03:08:43.415Z,1.00
2023-02-02T03:11:15.772Z,0.70
2023-02-02T03:13:47.081Z,0.85
2023-02-02T03:16:19.631Z,0.90
2023-02-02T03:18:50.775Z,0.75
2023-02-02T03:21:22.203Z,1.00
2023-02-02T03:23:53.653Z,0.90
2023-02-02T03:26:24.968Z,0.80
2023-02-02T03:31:30.010Z,0.88
2023-02-02T03:34:01.477Z,0.75
2023-02-02T03:36:32.602Z,0.95
2023-02-02T03:39:04.821Z,0.90
2023-02-02T03:41:36.399Z,0.98
2023-02-02T03:46:38.227Z,1.10
2023-02-02T03:51:39.811Z,1.03
2023-02-02T03:56:41.471Z,1.05
2023-02-02T03:59:12.667Z,0.90
2023-02-02T04:01:43.884Z,1.00
2023-02-02T04:04:15.305Z,1.10
2023-02-02T04:06:46.782Z,1.10
2023-02-02T04:09:18.111Z,1.00
2023-02-02T04:11:49.181Z,1.27
2023-02-02T04:14:20.120Z,1.38
2023-02-02T04:16:51.664Z,1.13
2023-02-02T04:21:53.557Z,1.20
2023-02-02T04:26:55.338Z,0.83
2023-02-02T04:29:27.784Z,1.10
2023-02-02T04:31:59.302Z,1.02
2023-02-02T04:34:30.494Z,0.82
2023-02-02T04:37:01.849Z,0.77
2023-02-02T04:42:04.379Z,0.80
2023-02-02T04:44:35.669Z,0.93
2023-02-02T04:47:06.664Z,1.00
2023-02-02T04:49:37.768Z,0.90
2023-02-02T04:52:09.291Z,1.00
2023-02-02T04:57:10.783Z,1.40
2023-02-02T05:04:43.985Z,1.00
2023-02-02T05:07:15.651Z,0.98
2023-02-02T05:09:46.622Z,0.90
2023-02-02T05:14:48.508Z,0.97
2023-02-02T05:17:20.269Z,0.90
2023-02-02T05:19:51.572Z,0.95
2023-02-02T05:22:22.835Z,0.90
2023-02-02T05:24:54.215Z,1.25
2023-02-02T05:27:26.271Z,0.90
2023-02-02T05:29:57.536Z,0.90
2023-02-02T05:32:30.378Z,0.82
2023-02-02T05:35:01.912Z,1.00
2023-02-02T05:37:33.624Z,0.70
2023-02-02T05:40:06.176Z,0.90
2023-02-02T05:42:37.466Z,0.73
2023-02-02T05:47:39.575Z,1.00
2023-02-02T05:50:11.136Z,0.60
2023-02-02T05:52:42.875Z,1.40
2023-02-02T05:55:14.079Z,1.20
2023-02-02T05:57:45.473Z,1.08
2023-02-02T06:00:17.343Z,0.80
2023-02-02T06:05:18.770Z,0.80
2023-02-02T06:07:50.186Z,0.80
2023-02-02T06:10:21.836Z,0.80
2023-02-02T06:15:24.143Z,0.90
2023-02-02T06:17:56.007Z,0.85
2023-02-02T06:20:27.322Z,0.98
2023-02-02T06:22:58.610Z,1.27
2023-02-02T06:25:30.522Z,1.20
2023-02-02T06:28:02.428Z,1.00
2023-02-02T06:30:33.471Z,1.23
2023-02-02T06:33:04.667Z,1.10
2023-02-02T06:35:36.279Z,1.15
2023-02-02T06:38:07.813Z,1.17
2023-02-02T06:43:10.559Z,1.00
2023-02-02T06:45:42.109Z,1.25
2023-02-02T06:48:13.441Z,1.00
2023-02-02T06:50:44.739Z,1.42
2023-02-02T06:53:15.827Z,1.25
2023-02-02T06:55:47.101Z,1.20
2023-02-02T06:58:18.247Z,1.00
2023-02-02T07:00:49.920Z,1.05
2023-02-02T07:03:22.949Z,1.20
2023-02-02T07:05:53.935Z,1.10
2023-02-02T07:08:25.029Z,1.20
2023-02-02T07:13:48.155Z,1.10
2023-02-02T07:16:20.613Z,0.90
2023-02-02T07:18:52.116Z,1.10
2023-02-02T07:21:26.064Z,1.00
2023-02-02T07:23:57.128Z,1.40
2023-02-02T07:26:29.127Z,0.98
2023-02-02T07:29:00.122Z,1.23
2023-02-02T07:31:32.559Z,1.00
2023-02-02T07:34:05.460Z,1.33
2023-02-02T07:36:37.307Z,1.02
2023-02-02T07:39:09.266Z,1.27
2023-02-02T07:41:40.637Z,0.90
2023-02-02T07:44:22.351Z,1.17
2023-02-02T07:46:54.362Z,4.90
2023-02-02T07:49:25.675Z,1.40
2023-02-02T07:54:27.477Z,1.00
2023-02-02T07:56:59.111Z,1.00
2023-02-02T08:02:03.450Z,1.02
2023-02-02T08:04:35.753Z,1.10
2023-02-02T08:07:06.987Z,1.00
2023-02-02T08:12:08.840Z,1.35
2023-02-02T08:14:40.035Z,1.38
2023-02-02T08:17:11.199Z,1.73
2023-02-02T08:22:14.229Z,1.40
2023-02-02T08:24:46.144Z,1.80
2023-02-02T08:27:18.671Z,2.40
2023-02-02T08:29:50.145Z,1.60
2023-02-02T08:32:21.801Z,1.45
2023-02-02T08:34:56.340Z,1.90
2023-02-02T08:37:27.505Z,2.15
2023-02-02T08:39:58.981Z,1.90
2023-02-02T08:42:30.001Z,2.35
2023-02-02T08:46:01.759Z,1.90
2023-02-02T08:48:02.015Z,2.73
2023-02-02T08:50:42.395Z,3.13
2023-02-02T08:55:43.877Z,2.40
2023-02-02T08:58:15.155Z,2.20
2023-02-02T09:03:19.030Z,2.30
2023-02-02T09:05:50.429Z,2.10
2023-02-02T09:08:21.839Z,2.03
2023-02-02T09:10:54.137Z,2.30
2023-02-02T09:13:25.509Z,4.20
2023-02-02T09:15:56.646Z,3.85
2023-02-02T09:18:27.877Z,2.60
2023-02-02T09:21:03.799Z,2.13
2023-02-02T09:23:37.342Z,1.90
2023-02-02T09:26:31.807Z,6.30
2023-02-02T09:29:08.826Z,2.90
2023-02-02T09:31:41.224Z,2.55
2023-02-02T09:34:14.277Z,2.80
2023-02-02T09:36:47.001Z,2.17
2023-02-02T09:39:19.952Z,2.30
2023-02-02T09:42:16.607Z,1.92
2023-02-02T09:45:01.425Z,2.22
2023-02-02T09:47:50.430Z,2.15
2023-02-02T09:50:27.256Z,2.22
2023-02-02T09:52:58.220Z,2.38
2023-02-02T09:55:41.836Z,2.65
2023-02-02T09:58:31.725Z,3.17
2023-02-02T10:01:11.979Z,3.05
2023-02-02T10:04:15.991Z,2.38
2023-02-02T10:06:52.820Z,2.03
2023-02-02T10:09:36.396Z,2.25
2023-02-02T10:12:42.945Z,2.40
2023-02-02T10:16:05.091Z,2.15
2023-02-02T10:19:13.661Z,2.58
2023-02-02T10:21:57.045Z,2.30
2023-02-02T10:24:30.964Z,2.53
2023-02-02T10:27:08.509Z,2.10
2023-02-02T10:29:55.185Z,2.08
2023-02-02T10:32:30.573Z,2.20
2023-02-02T10:35:13.587Z,1.92
2023-02-02T10:37:55.560Z,1.98
2023-02-02T10:40:44.672Z,2.47
2023-02-02T10:43:37.386Z,2.45
2023-02-02T10:46:11.544Z,2.47
2023-02-02T10:48:44.903Z,2.10
2023-02-02T10:51:35.932Z,2.13
2023-02-02T10:54:56.080Z,2.43
2023-02-02T10:57:49.224Z,1.90
2023-02-02T11:00:48.110Z,1.90
2023-02-02T11:03:21.777Z,1.73
2023-02-02T11:06:30.922Z,1.70
2023-02-02T11:09:04.713Z,2.22
2023-02-02T11:11:40.882Z,2.08
2023-02-02T11:14:12.421Z,1.60
2023-02-02T11:16:45.515Z,1.92
2023-02-02T11:19:21.156Z,1.77
2023-02-02T11:21:55.566Z,1.67
2023-02-02T11:24:42.675Z,1.75
2023-02-02T11:27:18.005Z,1.65
2023-02-02T11:29:51.994Z,1.48
2023-02-02T11:32:34.043Z,1.60
2023-02-02T11:35:25.084Z,1.50
2023-02-02T11:38:19.849Z,1.50
2023-02-02T11:40:59.332Z,1.50
2023-02-02T11:43:43.313Z,1.50
2023-02-02T11:46:25.815Z,1.27
2023-02-02T11:49:06.434Z,1.30
2023-02-02T11:51:37.770Z,1.30
2023-02-02T11:54:20.515Z,1.67
2023-02-02T11:56:55.258Z,1.50
2023-02-02T11:59:35.603Z,1.58
2023-02-02T12:02:26.061Z,1.50
2023-02-02T12:05:34.400Z,1.30
2023-02-02T12:08:07.213Z,2.85
2023-02-02T12:10:46.403Z,1.85
2023-02-02T12:13:24.012Z,1.30
2023-02-02T12:16:45.740Z,1.00
2023-02-02T12:20:00.769Z,1.88
2023-02-02T12:22:54.577Z,1.63
2023-02-02T12:25:55.329Z,3.22
2023-02-02T12:28:42.368Z,2.47
2023-02-02T12:31:22.918Z,1.90
2023-02-02T12:34:14.959Z,1.20
2023-02-02T12:39:35.828Z,1.98
2023-02-02T12:42:12.892Z,1.92
2023-02-02T12:44:52.266Z,2.00
2023-02-02T12:47:28.044Z,2.17
2023-02-02T12:50:11.434Z,1.13
2023-02-02T12:52:48.621Z,2.72
2023-02-02T12:55:35.902Z,4.97
2023-02-02T12:58:25.654Z,3.22
2023-02-02T13:01:33.527Z,2.08
2023-02-02T13:04:13.616Z,2.33
2023-02-02T13:06:44.828Z,2.00
2023-02-02T13:09:30.031Z,1.33
2023-02-02T13:12:12.840Z,1.50
2023-02-02T13:14:51.584Z,1.55
2023-02-02T13:17:46.290Z,1.40
2023-02-02T13:20:25.395Z,1.50
2023-02-02T13:23:00.914Z,1.60
2023-02-02T13:25:36.850Z,1.77
2023-02-02T13:28:09.625Z,1.40
2023-02-02T13:30:41.683Z,1.83
2023-02-02T13:33:17.802Z,1.90
2023-02-02T13:35:55.394Z,1.60
2023-02-02T13:38:28.955Z,1.40
2023-02-02T13:41:06.848Z,2.30
2023-02-02T13:44:03.856Z,4.43
2023-02-02T13:46:47.994Z,2.10
2023-02-02T13:49:34.043Z,1.42
2023-02-02T13:52:20.409Z,1.55
2023-02-02T13:55:20.400Z,1.70
2023-02-02T13:58:18.823Z,2.00
2023-02-02T14:00:54.473Z,1.70
2023-02-02T14:03:32.717Z,1.45
2023-02-02T14:06:12.297Z,1.60
2023-02-02T14:08:50.611Z,1.63
2023-02-02T14:11:28.402Z,2.67
2023-02-02T14:14:33.945Z,2.13
2023-02-02T14:17:09.670Z,1.90
2023-02-02T14:19:52.745Z,1.83
2023-02-02T14:22:53.866Z,2.05
2023-02-02T14:25:34.951Z,2.10
2023-02-02T14:28:14.169Z,1.25
2023-02-02T14:30:45.351Z,1.60
2023-02-02T14:36:01.657Z,1.23
2023-02-02T14:38:58.047Z,1.42
2023-02-02T14:42:05.010Z,1.10
2023-02-02T14:44:39.079Z,1.30
2023-02-02T14:47:44.541Z,1.20
2023-02-02T14:50:19.521Z,1.35
2023-02-02T14:53:01.899Z,1.40
2023-02-02T14:55:33.663Z,1.27
2023-02-02T14:58:07.192Z,1.25
2023-02-02T15:00:38.552Z,1.20
2023-02-02T15:03:36.780Z,1.30
2023-02-02T15:06:16.247Z,1.33
2023-02-02T15:08:47.978Z,0.82
2023-02-02T15:11:31.336Z,1.38
2023-02-02T15:14:08.724Z,1.10
2023-02-02T15:16:41.074Z,1.08
2023-02-02T15:19:36.060Z,0.95
2023-02-02T15:22:46.312Z,1.08
2023-02-02T15:25:38.546Z,1.10
2023-02-02T15:28:20.224Z,1.25
2023-02-02T15:30:58.137Z,0.90
2023-02-02T15:33:33.145Z,1.00
2023-02-02T15:36:07.243Z,1.35
2023-02-02T15:38:41.409Z,0.80
2023-02-02T15:41:22.436Z,1.00
2023-02-02T15:43:54.769Z,1.13
2023-02-02T15:46:29.179Z,1.13
2023-02-02T15:49:33.832Z,1.15
2023-02-02T15:52:21.770Z,1.08
2023-02-02T15:54:56.341Z,1.30
2023-02-02T15:57:34.045Z,1.00
2023-02-02T16:00:32.819Z,1.30
2023-02-02T16:03:24.308Z,1.20
2023-02-02T16:05:57.914Z,1.02
2023-02-02T16:08:36.521Z,1.00
2023-02-02T16:11:14.584Z,1.00
2023-02-02T16:14:19.196Z,1.08
2023-02-02T16:16:51.207Z,0.80
2023-02-02T16:19:25.161Z,0.98
2023-02-02T16:21:58.723Z,0.93
2023-02-02T16:24:46.365Z,1.02
2023-02-02T16:27:21.899Z,0.90
2023-02-02T16:29:53.887Z,0.98
2023-02-02T16:32:45.698Z,1.00
2023-02-02T16:35:40.772Z,0.77
2023-02-02T16:38:16.753Z,0.98
2023-02-02T16:40:48.112Z,0.95
2023-02-02T16:43:21.697Z,1.10
2023-02-02T16:46:23.296Z,1.13
2023-02-02T16:49:03.667Z,1.35
2023-02-02T16:51:35.546Z,1.30
2023-02-02T16:54:09.945Z,1.13
2023-02-02T16:56:46.532Z,1.13
2023-02-02T16:59:30.013Z,1.38
2023-02-02T17:02:25.195Z,1.10
2023-02-02T17:05:05.959Z,1.50
2023-02-02T17:07:39.484Z,1.30
2023-02-02T17:10:19.508Z,1.05
2023-02-02T17:12:51.003Z,1.13
2023-02-02T17:15:21.984Z,1.33
2023-02-02T17:17:55.078Z,1.00
2023-02-02T17:20:26.692Z,1.10
2023-02-02T17:23:06.407Z,1.08
2023-02-02T17:25:44.128Z,1.30
2023-02-02T17:28:20.115Z,1.30
2023-02-02T17:31:00.713Z,1.10
2023-02-02T17:33:34.216Z,1.33
2023-02-02T17:36:06.431Z,1.25
2023-02-02T17:38:37.957Z,1.15
2023-02-02T17:41:09.134Z,1.30
2023-02-02T17:43:40.165Z,1.33
2023-02-02T17:46:14.824Z,1.30
2023-02-02T17:48:46.054Z,1.30
2023-02-02T17:51:18.863Z,1.17
2023-02-02T17:53:49.794Z,1.38
2023-02-02T17:56:22.285Z,1.42
2023-02-02T17:58:53.689Z,1.90
2023-02-02T18:01:25.290Z,1.60
2023-02-02T18:03:56.946Z,1.42
2023-02-02T18:06:28.019Z,1.70
2023-02-02T18:08:59.463Z,1.42
2023-02-02T18:11:30.922Z,1.65
2023-02-02T18:14:02.269Z,1.70
2023-02-02T18:19:04.563Z,1.75
2023-02-02T18:21:36.115Z,1.52
2023-02-02T18:24:07.369Z,1.70
2023-02-02T18:26:38.859Z,1.85
2023-02-02T18:29:09.920Z,1.60
2023-02-02T18:31:42.435Z,1.90
2023-02-02T18:34:14.250Z,2.03
2023-02-02T18:36:45.488Z,1.60
2023-02-02T18:39:16.942Z,2.10
2023-02-02T18:41:47.955Z,1.73
2023-02-02T18:44:19.093Z,1.60
2023-02-02T18:46:53.616Z,1.40
2023-02-02T18:49:25.986Z,1.40
2023-02-02T18:51:57.268Z,1.67
2023-02-02T18:54:28.548Z,1.70
2023-02-02T18:56:59.497Z,1.60
2023-02-02T18:59:33.648Z,1.80
2023-02-02T19:02:05.046Z,1.55
2023-02-02T19:04:36.605Z,1.60
2023-02-02T19:09:56.429Z,1.77
2023-02-02T19:12:29.958Z,1.30
2023-02-02T19:15:01.644Z,1.48
2023-02-02T19:17:33.667Z,1.58
2023-02-02T19:20:21.002Z,1.60
2023-02-02T19:22:54.629Z,1.73
2023-02-02T19:25:25.923Z,1.70
2023-02-02T19:27:57.234Z,1.55
2023-02-02T19:30:28.549Z,1.90
2023-02-02T19:33:00.507Z,1.58
2023-02-02T19:35:33.509Z,2.22
2023-02-02T19:38:05.432Z,1.50
2023-02-02T19:40:36.974Z,1.40
2023-02-02T19:43:23.513Z,1.80
2023-02-02T19:45:55.490Z,1.70
2023-02-02T19:48:40.554Z,1.67
2023-02-02T19:51:35.935Z,1.92
2023-02-02T19:54:08.869Z,1.85
2023-02-02T19:56:41.819Z,1.63
2023-02-02T19:59:19.095Z,1.77
2023-02-02T20:01:52.358Z,1.80
2023-02-02T20:04:23.821Z,2.15
2023-02-02T20:06:59.465Z,1.83
2023-02-02T20:09:36.879Z,1.60
2023-02-02T20:12:37.278Z,1.77
2023-02-02T20:15:37.971Z,1.85
2023-02-02T20:18:16.323Z,1.73
2023-02-02T20:20:51.066Z,1.73
2023-02-02T20:23:38.264Z,2.05
2023-02-02T20:26:36.593Z,2.05
2023-02-02T20:29:17.027Z,2.05
2023-02-02T20:31:50.028Z,2.20
2023-02-02T20:34:32.217Z,2.17
2023-02-02T20:37:15.771Z,1.80
2023-02-02T20:39:55.696Z,2.20
2023-02-02T20:42:27.316Z,1.92
2023-02-02T20:44:59.664Z,2.40
2023-02-02T20:47:31.573Z,2.25
2023-02-02T20:50:02.886Z,2.38
2023-02-02T20:52:34.026Z,2.30
2023-02-02T20:55:05.594Z,2.30
2023-02-02T20:57:36.982Z,2.22
2023-02-02T21:02:42.985Z,2.60
2023-02-02T21:05:14.337Z,2.13
2023-02-02T21:07:45.982Z,2.20
2023-02-02T21:10:17.575Z,3.40
2023-02-02T21:12:51.467Z,2.28
2023-02-02T21:15:22.936Z,2.40
2023-02-02T21:17:54.278Z,2.30
2023-02-02T21:20:25.875Z,2.50
2023-02-02T21:22:58.272Z,2.20
2023-02-02T21:25:29.627Z,2.42
2023-02-02T21:28:01.724Z,2.38
2023-02-02T21:30:32.793Z,2.38
2023-02-02T21:33:04.106Z,2.55
2023-02-02T21:35:36.969Z,2.30
2023-02-02T21:38:15.107Z,2.53
2023-02-02T21:40:48.230Z,2.47
2023-02-02T21:43:20.691Z,3.75
2023-02-02T21:45:53.245Z,2.67
2023-02-02T21:48:50.750Z,2.08
2023-02-02T21:51:39.413Z,2.40
2023-02-02T21:54:25.934Z,2.03
2023-02-02T21:56:57.633Z,2.40
2023-02-02T21:59:34.477Z,2.08
2023-02-02T22:02:35.721Z,2.20
2023-02-02T22:05:16.072Z,2.17
2023-02-02T22:07:51.412Z,1.95
2023-02-02T22:10:39.541Z,3.10
2023-02-02T22:13:22.776Z,2.22
2023-02-02T22:15:55.243Z,1.95
2023-02-02T22:18:27.801Z,2.03
2023-02-02T22:20:59.055Z,2.28
2023-02-02T22:26:01.000Z,2.15
2023-02-02T22:28:41.324Z,1.70
2023-02-02T22:31:12.690Z,2.08
2023-02-02T22:33:44.005Z,2.30
2023-02-02T22:36:15.815Z,1.90
2023-02-02T22:38:46.994Z,1.95
2023-02-02T22:41:18.452Z,2.13
2023-02-02T22:43:49.760Z,2.03
2023-02-02T22:48:51.516Z,2.03
2023-02-02T22:51:22.533Z,2.13
2023-02-02T22:53:54.199Z,2.15
2023-02-02T22:56:25.276Z,2.03
2023-02-02T22:58:56.450Z,1.92
2023-02-02T23:01:27.767Z,2.03
2023-02-02T23:03:59.040Z,2.35
2023-02-02T23:06:30.534Z,1.92
2023-02-02T23:09:01.634Z,2.13
2023-02-02T23:11:33.068Z,1.90
2023-02-02T23:14:04.675Z,1.98
2023-02-02T23:16:35.703Z,1.60
2023-02-02T23:21:38.117Z,2.20
2023-02-02T23:24:09.703Z,1.92
2023-02-02T23:29:11.176Z,1.95
2023-02-02T23:31:42.628Z,1.70
2023-02-02T23:36:44.738Z,1.80
2023-02-02T23:39:15.806Z,1.60
2023-02-02T23:41:46.954Z,1.70
2023-02-02T23:44:18.040Z,1.98
2023-02-02T23:46:49.609Z,1.85
2023-02-02T23:49:20.938Z,1.55
2023-02-02T23:51:52.070Z,1.50
2023-02-02T23:54:23.967Z,1.85
2023-02-02T23:56:55.623Z,1.90
